createdAt,value
2024-05-09T00:02:28.247Z,102606.23
2024-05-09T00:05:00.032Z,102605.98
2024-05-09T00:07:31.562Z,102607.13
2024-05-09T00:10:05.453Z,102605.42
2024-05-09T00:12:38.653Z,102609.40
2024-05-09T00:15:11.397Z,102605.94
2024-05-09T00:17:43.225Z,102605.34
2024-05-09T00:20:20.499Z,102605.30
2024-05-09T00:22:56.374Z,102603.08
2024-05-09T00:25:27.949Z,102608.09
2024-05-09T00:27:59.493Z,102604.64
2024-05-09T00:30:34.807Z,102606.66
2024-05-09T00:33:10.315Z,102606.20
2024-05-09T00:35:43.611Z,102605.77
2024-05-09T00:38:15.570Z,102605.70
2024-05-09T00:40:47.344Z,102606.70
2024-05-09T00:43:18.931Z,102609.77
2024-05-09T00:45:50.882Z,102608.60
2024-05-09T00:48:22.648Z,102605.34
2024-05-09T00:50:56.374Z,102603.30
2024-05-09T00:53:28.086Z,102603.40
2024-05-09T00:56:00.466Z,102601.73
2024-05-09T00:58:32.441Z,102599.21
2024-05-09T01:01:04.277Z,102598.79
2024-05-09T01:03:36.117Z,102600.52
2024-05-09T01:06:08.078Z,102600.95
2024-05-09T01:08:39.747Z,102605.77
2024-05-09T01:11:11.586Z,102606.71
2024-05-09T01:13:44.715Z,102601.85
2024-05-09T01:16:16.649Z,102603.13
2024-05-09T01:18:48.375Z,102601.08
2024-05-09T01:21:20.268Z,102600.63
2024-05-09T01:23:51.929Z,102599.78
2024-05-09T01:26:23.489Z,102601.23
2024-05-09T01:28:55.386Z,102601.67
2024-05-09T01:31:27.044Z,102600.02
2024-05-09T01:33:58.751Z,102599.98
2024-05-09T01:36:30.670Z,102594.27
2024-05-09T01:39:02.280Z,102591.70
2024-05-09T01:41:34.060Z,102598.16
2024-05-09T01:44:05.959Z,102595.79
2024-05-09T01:46:37.575Z,102599.23
2024-05-09T01:49:09.854Z,102596.67
2024-05-09T01:51:41.576Z,102596.02
2024-05-09T01:54:13.704Z,102594.84
2024-05-09T01:56:45.447Z,102594.06
2024-05-09T01:59:17.122Z,102590.46
2024-05-09T02:01:56.652Z,102591.05
2024-05-09T02:04:30.684Z,102588.05
2024-05-09T02:07:02.319Z,102590.00
2024-05-09T02:09:33.916Z,102589.14
2024-05-09T02:12:06.227Z,102584.75
2024-05-09T02:14:38.154Z,102584.06
2024-05-09T02:17:09.681Z,102586.20
2024-05-09T02:19:41.170Z,102592.39
2024-05-09T02:22:13.079Z,102593.51
2024-05-09T02:24:44.722Z,102593.55
2024-05-09T02:27:16.247Z,102591.63
2024-05-09T02:29:47.844Z,102593.98
2024-05-09T02:32:19.635Z,102592.50
2024-05-09T02:34:51.285Z,102595.80
2024-05-09T02:37:22.980Z,102600.42
2024-05-09T02:39:54.600Z,102604.89
2024-05-09T02:42:26.248Z,102603.41
2024-05-09T02:44:57.890Z,102602.23
2024-05-09T02:47:29.669Z,102600.47
2024-05-09T02:50:01.391Z,102603.03
2024-05-09T02:52:33.009Z,102600.11
2024-05-09T02:55:04.756Z,102599.17
2024-05-09T02:57:37.408Z,102601.02
2024-05-09T03:00:18.472Z,102602.85
2024-05-09T03:02:54.225Z,102600.60
2024-05-09T03:05:25.975Z,102602.91
2024-05-09T03:07:58.371Z,102607.33
2024-05-09T03:10:35.567Z,102607.91
2024-05-09T03:13:12.142Z,102604.27
2024-05-09T03:15:45.173Z,102601.83
2024-05-09T03:18:22.652Z,102596.39
2024-05-09T03:20:54.335Z,102598.02
2024-05-09T03:23:26.300Z,102595.96
2024-05-09T03:25:58.050Z,102598.71
2024-05-09T03:28:29.679Z,102598.50
2024-05-09T03:31:01.811Z,102600.04
2024-05-09T03:33:33.771Z,102598.41
2024-05-09T03:36:09.809Z,102599.22
2024-05-09T03:38:42.769Z,102593.34
2024-05-09T03:41:15.093Z,102595.40
2024-05-09T03:43:47.717Z,102595.54
2024-05-09T03:46:19.280Z,102596.55
2024-05-09T03:48:51.078Z,102597.44
2024-05-09T03:51:22.802Z,102595.70
2024-05-09T03:53:54.335Z,102599.39
2024-05-09T03:56:26.935Z,102604.45
2024-05-09T03:58:58.581Z,102603.84
2024-05-09T04:01:30.807Z,102602.56
2024-05-09T04:04:02.662Z,102594.44
2024-05-09T04:06:34.234Z,102597.77
2024-05-09T04:09:05.898Z,102600.77
2024-05-09T04:11:37.463Z,102596.76
2024-05-09T04:14:09.467Z,102601.71
2024-05-09T04:16:41.129Z,102607.40
2024-05-09T04:19:12.911Z,102608.16
2024-05-09T04:21:44.688Z,102607.71
2024-05-09T04:24:16.330Z,102608.74
2024-05-09T04:26:47.809Z,102609.73
2024-05-09T04:29:19.477Z,102608.45
2024-05-09T04:31:51.102Z,102610.36
2024-05-09T04:34:23.239Z,102612.35
2024-05-09T04:36:55.518Z,102612.27
2024-05-09T04:39:27.109Z,102613.23
2024-05-09T04:41:58.656Z,102608.23
2024-05-09T04:44:30.554Z,102612.55
2024-05-09T04:47:02.217Z,102615.83
2024-05-09T04:49:33.835Z,102618.16
2024-05-09T04:52:05.901Z,102622.68
2024-05-09T04:54:37.853Z,102623.60
2024-05-09T04:57:09.607Z,102625.05
2024-05-09T04:59:41.198Z,102623.48
2024-05-09T05:02:13.067Z,102623.34
2024-05-09T05:04:45.034Z,102623.86
2024-05-09T05:07:16.864Z,102619.99
2024-05-09T05:09:48.525Z,102617.41
2024-05-09T05:12:38.256Z,102621.84
2024-05-09T05:15:10.382Z,102616.20
2024-05-09T05:17:42.158Z,102618.21
2024-05-09T05:20:17.918Z,102618.52
2024-05-09T05:22:55.738Z,102622.05
2024-05-09T05:25:27.428Z,102617.58
2024-05-09T05:27:58.851Z,102615.98
2024-05-09T05:30:34.622Z,102614.48
2024-05-09T05:33:08.020Z,102608.92
2024-05-09T05:35:39.812Z,102608.80
2024-05-09T05:38:12.000Z,102609.20
2024-05-09T05:40:43.953Z,102605.17
2024-05-09T05:43:20.462Z,102606.44
2024-05-09T05:45:52.006Z,102611.91
2024-05-09T05:48:23.783Z,102614.87
2024-05-09T05:50:55.702Z,102613.95
2024-05-09T05:53:27.219Z,102613.02
2024-05-09T05:55:58.986Z,102610.67
2024-05-09T05:58:30.591Z,102612.19
2024-05-09T06:01:02.205Z,102605.94
2024-05-09T06:03:33.849Z,102605.86
2024-05-09T06:06:06.337Z,102608.42
2024-05-09T06:08:38.044Z,102604.13
2024-05-09T06:11:09.634Z,102603.35
2024-05-09T06:13:44.935Z,102603.12
2024-05-09T06:16:16.493Z,102603.93
2024-05-09T06:18:48.264Z,102600.85
2024-05-09T06:21:20.616Z,102599.92
2024-05-09T06:23:53.451Z,102597.91
2024-05-09T06:26:25.083Z,102594.67
2024-05-09T06:28:56.664Z,102594.80
2024-05-09T06:31:28.231Z,102598.61
2024-05-09T06:33:59.948Z,102600.10
2024-05-09T06:36:31.815Z,102597.73
2024-05-09T06:39:03.380Z,102599.25
2024-05-09T06:41:35.255Z,102605.88
2024-05-09T06:44:07.032Z,102607.94
2024-05-09T06:46:40.302Z,102607.19
2024-05-09T06:49:13.727Z,102604.64
2024-05-09T06:51:45.527Z,102603.70
2024-05-09T06:54:18.524Z,102605.58
2024-05-09T06:56:50.224Z,102602.69
2024-05-09T06:59:21.813Z,102595.52
2024-05-09T07:01:54.620Z,102597.60
2024-05-09T07:04:26.612Z,102597.71
2024-05-09T07:06:58.912Z,102593.40
2024-05-09T07:09:30.476Z,102596.86
2024-05-09T07:12:02.272Z,102594.67
2024-05-09T07:14:36.150Z,102597.42
2024-05-09T07:17:09.502Z,102591.90
2024-05-09T07:19:41.551Z,102590.59
2024-05-09T07:22:13.764Z,102590.67
2024-05-09T07:24:45.341Z,102591.31
2024-05-09T07:27:17.035Z,102590.86
2024-05-09T07:29:48.652Z,102594.14
2024-05-09T07:32:20.447Z,102595.13
2024-05-09T07:34:52.238Z,102592.05
2024-05-09T07:37:24.248Z,102586.67
2024-05-09T07:39:56.072Z,102583.59
2024-05-09T07:42:27.716Z,102575.73
2024-05-09T07:45:14.849Z,102573.17
2024-05-09T07:49:13.695Z,102571.34
2024-05-09T07:53:38.119Z,102570.99
2024-05-09T07:56:12.239Z,102568.45
2024-05-09T07:58:46.621Z,102569.95
2024-05-09T08:01:18.445Z,102567.20
2024-05-09T08:03:50.721Z,102565.87
2024-05-09T08:06:24.284Z,102560.14
2024-05-09T08:08:56.008Z,102557.40
2024-05-09T08:11:28.416Z,102553.78
2024-05-09T08:13:59.976Z,102554.77
2024-05-09T08:16:31.708Z,102551.84
2024-05-09T08:19:04.192Z,102553.52
2024-05-09T08:21:35.906Z,102550.59
2024-05-09T08:24:08.243Z,102546.97
2024-05-09T08:26:39.770Z,102549.54
2024-05-09T08:29:13.672Z,102548.23
2024-05-09T08:31:45.409Z,102550.98
2024-05-09T08:34:17.683Z,102552.33
2024-05-09T08:36:49.448Z,102546.20
2024-05-09T08:39:21.087Z,102544.86
2024-05-09T08:41:53.057Z,102541.56
2024-05-09T08:44:25.232Z,102542.49
2024-05-09T08:46:57.443Z,102544.73
2024-05-09T08:49:29.087Z,102538.95
2024-05-09T08:52:01.083Z,102538.83
2024-05-09T08:54:33.305Z,102536.39
2024-05-09T08:57:05.440Z,102536.63
2024-05-09T08:59:42.622Z,102536.49
2024-05-09T09:02:16.333Z,102539.73
2024-05-09T09:04:54.167Z,102542.10
2024-05-09T09:07:27.424Z,102544.84
2024-05-09T09:10:00.751Z,102543.30
2024-05-09T09:12:32.655Z,102542.48
2024-05-09T09:15:04.490Z,102536.67
2024-05-09T09:17:36.954Z,102537.27
2024-05-09T09:20:14.481Z,102531.65
2024-05-09T09:22:50.964Z,102531.04
2024-05-09T09:25:23.772Z,102531.43
2024-05-09T09:27:56.046Z,102531.34
2024-05-09T09:30:36.400Z,102533.70
2024-05-09T09:33:11.999Z,102533.95
2024-05-09T09:35:44.123Z,102531.34
2024-05-09T09:38:23.974Z,102530.50
2024-05-09T09:40:56.198Z,102533.20
2024-05-09T09:43:29.079Z,102529.84
2024-05-09T09:46:02.842Z,102532.36
2024-05-09T09:48:34.898Z,102533.85
2024-05-09T09:51:09.086Z,102528.58
2024-05-09T09:53:42.360Z,102529.87
2024-05-09T09:56:18.253Z,102526.18
2024-05-09T09:58:51.074Z,102522.31
2024-05-09T10:01:23.829Z,102523.77
2024-05-09T10:03:55.754Z,102522.53
2024-05-09T10:06:28.738Z,102515.80
2024-05-09T10:09:00.778Z,102516.01
2024-05-09T10:11:39.801Z,102512.48
2024-05-09T10:14:23.207Z,102510.20
2024-05-09T10:17:04.751Z,102508.80
2024-05-09T10:19:35.315Z,102506.88
2024-05-09T10:22:08.906Z,102509.38
2024-05-09T10:24:51.231Z,102506.76
2024-05-09T10:27:29.494Z,102504.67
2024-05-09T10:30:03.839Z,102502.95
2024-05-09T10:32:40.313Z,102494.65
2024-05-09T10:35:14.947Z,102494.00
2024-05-09T10:37:47.296Z,102491.92
2024-05-09T10:40:26.135Z,102485.23
2024-05-09T10:43:06.344Z,102485.98
2024-05-09T10:45:39.133Z,102486.94
2024-05-09T10:48:11.437Z,102487.86
2024-05-09T10:50:45.877Z,102488.27
2024-05-09T10:53:19.144Z,102484.95
2024-05-09T10:55:59.731Z,102484.11
2024-05-09T10:58:31.309Z,102482.19
2024-05-09T11:01:06.638Z,102484.18
2024-05-09T11:03:39.930Z,102481.08
2024-05-09T11:06:13.224Z,102479.68
2024-05-09T11:08:46.717Z,102478.65
2024-05-09T11:11:18.835Z,102476.19
2024-05-09T11:13:50.386Z,102472.48
2024-05-09T11:16:22.680Z,102470.22
2024-05-09T11:18:59.049Z,102473.63
2024-05-09T11:21:31.018Z,102474.19
2024-05-09T11:24:03.065Z,102466.73
2024-05-09T11:26:35.230Z,102458.21
2024-05-09T11:29:07.045Z,102451.48
2024-05-09T11:31:50.466Z,102454.15
2024-05-09T11:34:22.142Z,102452.92
2024-05-09T11:36:54.092Z,102449.56
2024-05-09T11:39:26.631Z,102445.83
2024-05-09T11:41:58.417Z,102438.21
2024-05-09T11:44:30.180Z,102441.95
2024-05-09T11:47:01.851Z,102441.08
2024-05-09T11:49:33.672Z,102436.30
2024-05-09T11:52:06.184Z,102431.33
2024-05-09T11:54:37.770Z,102427.77
2024-05-09T11:57:10.446Z,102427.05
2024-05-09T11:59:42.446Z,102422.40
2024-05-09T12:02:14.160Z,102421.51
2024-05-09T12:04:46.911Z,102418.99
2024-05-09T12:07:21.582Z,102417.20
2024-05-09T12:09:53.360Z,102417.00
2024-05-09T12:12:24.873Z,102413.77
2024-05-09T12:14:57.063Z,102417.82
2024-05-09T12:17:29.235Z,102417.98
2024-05-09T12:20:00.928Z,102418.00
2024-05-09T12:22:32.560Z,102419.55
2024-05-09T12:25:04.941Z,102414.52
2024-05-09T12:27:40.057Z,102412.34
2024-05-09T12:30:24.668Z,102408.53
2024-05-09T12:33:01.113Z,102401.17
2024-05-09T12:35:33.370Z,102402.54
2024-05-09T12:38:05.417Z,102396.06
2024-05-09T12:40:38.927Z,102393.84
2024-05-09T12:43:12.041Z,102398.42
2024-05-09T12:45:44.287Z,102394.08
2024-05-09T12:48:16.442Z,102394.55
2024-05-09T12:50:48.498Z,102389.32
2024-05-09T12:53:20.292Z,102387.46
2024-05-09T12:55:56.961Z,102376.15
2024-05-09T12:58:32.362Z,102371.58
2024-05-09T13:01:03.971Z,102367.91
2024-05-09T13:03:36.294Z,102367.29
2024-05-09T13:06:08.366Z,102363.08
2024-05-09T13:08:40.004Z,102365.25
2024-05-09T13:11:11.574Z,102359.79
2024-05-09T13:13:43.099Z,102357.93
2024-05-09T13:16:14.824Z,102359.39
2024-05-09T13:18:47.094Z,102355.48
2024-05-09T13:21:18.706Z,102349.98
2024-05-09T13:23:50.268Z,102346.98
2024-05-09T13:26:22.012Z,102342.77
2024-05-09T13:28:53.594Z,102339.95
2024-05-09T13:31:25.285Z,102339.46
2024-05-09T13:33:57.126Z,102335.42
2024-05-09T13:36:28.713Z,102329.39
2024-05-09T13:39:00.863Z,102331.79
2024-05-09T13:41:32.306Z,102330.76
2024-05-09T13:44:04.655Z,102325.80
2024-05-09T13:46:37.037Z,102324.06
2024-05-09T13:49:11.753Z,102316.74
2024-05-09T13:51:44.256Z,102313.27
2024-05-09T13:54:18.602Z,102306.23
2024-05-09T13:56:52.294Z,102305.11
2024-05-09T13:59:24.113Z,102298.85
2024-05-09T14:01:55.909Z,102300.81
2024-05-09T14:04:27.787Z,102305.97
2024-05-09T14:06:59.689Z,102300.44
2024-05-09T14:09:31.406Z,102296.41
2024-05-09T14:12:03.038Z,102297.15
2024-05-09T14:14:34.589Z,102288.70
2024-05-09T14:17:06.436Z,102285.56
2024-05-09T14:19:38.056Z,102283.92
2024-05-09T14:22:09.960Z,102280.30
2024-05-09T14:24:41.741Z,102281.69
2024-05-09T14:27:13.297Z,102276.85
2024-05-09T14:29:44.963Z,102268.23
2024-05-09T14:32:17.258Z,102265.09
2024-05-09T14:34:48.883Z,102257.12
2024-05-09T14:37:21.182Z,102254.14
2024-05-09T14:39:52.755Z,102249.84
2024-05-09T14:42:24.271Z,102244.54
2024-05-09T14:44:55.903Z,102244.73
2024-05-09T14:47:27.661Z,102244.41
2024-05-09T14:50:00.145Z,102244.80
2024-05-09T14:52:31.719Z,102240.20
2024-05-09T14:55:03.413Z,102239.42
2024-05-09T14:57:35.071Z,102234.79
2024-05-09T15:00:17.311Z,102231.13
2024-05-09T15:02:57.163Z,102229.34
2024-05-09T15:05:29.935Z,102228.23
2024-05-09T15:08:01.805Z,102221.31
2024-05-09T15:10:36.251Z,102223.36
2024-05-09T15:13:10.530Z,102221.52
2024-05-09T15:15:44.321Z,102218.52
2024-05-09T15:18:16.315Z,102217.73
2024-05-09T15:20:48.716Z,102220.71
2024-05-09T15:23:20.794Z,102218.37
2024-05-09T15:25:52.632Z,102215.29
2024-05-09T15:28:24.792Z,102215.46
2024-05-09T15:30:56.519Z,102212.50
2024-05-09T15:33:28.795Z,102206.49
2024-05-09T15:36:00.547Z,102211.29
2024-05-09T15:38:32.763Z,102206.08
2024-05-09T15:41:04.511Z,102203.40
2024-05-09T15:43:36.132Z,102201.69
2024-05-09T15:46:08.522Z,102201.23
2024-05-09T15:48:44.530Z,102200.90
2024-05-09T15:51:16.723Z,102199.15
2024-05-09T15:53:48.264Z,102197.69
2024-05-09T15:56:20.090Z,102192.63
2024-05-09T15:58:51.599Z,102187.94
2024-05-09T16:01:23.377Z,102192.23
2024-05-09T16:03:55.235Z,102191.05
2024-05-09T16:06:26.997Z,102186.25
2024-05-09T16:08:58.615Z,102188.77
2024-05-09T16:11:30.187Z,102184.93
2024-05-09T16:14:01.832Z,102178.46
2024-05-09T16:16:33.882Z,102181.23
2024-05-09T16:19:05.882Z,102178.94
2024-05-09T16:21:37.628Z,102183.09
2024-05-09T16:24:10.443Z,102181.60
2024-05-09T16:26:42.083Z,102181.14
2024-05-09T16:29:13.712Z,102182.93
2024-05-09T16:31:45.414Z,102177.15
2024-05-09T16:34:17.210Z,102177.76
2024-05-09T16:36:51.337Z,102179.94
2024-05-09T16:39:23.081Z,102182.11
2024-05-09T16:41:55.358Z,102177.48
2024-05-09T16:44:26.949Z,102183.11
2024-05-09T16:46:58.708Z,102183.02
2024-05-09T16:49:30.213Z,102180.59
2024-05-09T16:52:01.862Z,102179.56
2024-05-09T16:54:33.670Z,102177.19
2024-05-09T16:57:05.898Z,102173.67
2024-05-09T16:59:37.502Z,102178.25
2024-05-09T17:02:09.756Z,102175.00
2024-05-09T17:04:42.784Z,102174.91
2024-05-09T17:07:14.846Z,102179.05
2024-05-09T17:09:46.839Z,102177.84
2024-05-09T17:12:18.726Z,102178.69
2024-05-09T17:14:51.415Z,102179.36
2024-05-09T17:17:23.389Z,102174.31
2024-05-09T17:19:54.994Z,102172.83
2024-05-09T17:22:26.609Z,102171.95
2024-05-09T17:24:58.278Z,102174.48
2024-05-09T17:27:30.140Z,102173.02
2024-05-09T17:30:01.819Z,102174.34
2024-05-09T17:32:33.643Z,102172.00
2024-05-09T17:35:05.879Z,102173.27
2024-05-09T17:37:37.665Z,102171.08
2024-05-09T17:40:16.935Z,102174.63
2024-05-09T17:42:50.084Z,102172.60
2024-05-09T17:45:21.748Z,102174.62
2024-05-09T17:47:54.032Z,102171.88
2024-05-09T17:50:31.696Z,102171.67
2024-05-09T17:53:06.369Z,102174.00
2024-05-09T17:55:39.145Z,102172.87
2024-05-09T17:58:12.824Z,102168.79
2024-05-09T18:00:44.760Z,102169.61
2024-05-09T18:03:16.844Z,102168.97
2024-05-09T18:05:48.613Z,102168.52
2024-05-09T18:08:20.493Z,102165.39
2024-05-09T18:10:54.812Z,102167.77
2024-05-09T18:13:27.184Z,102169.80
2024-05-09T18:15:59.351Z,102173.98
2024-05-09T18:18:31.340Z,102169.98
2024-05-09T18:21:02.954Z,102169.19
2024-05-09T18:23:35.817Z,102172.73
2024-05-09T18:26:09.457Z,102176.21
2024-05-09T18:28:41.696Z,102177.21
2024-05-09T18:31:13.364Z,102176.57
2024-05-09T18:33:45.282Z,102182.16
2024-05-09T18:36:17.073Z,102182.08
2024-05-09T18:38:49.300Z,102183.76
2024-05-09T18:41:22.025Z,102183.33
2024-05-09T18:43:55.145Z,102183.08
2024-05-09T18:46:27.574Z,102184.39
2024-05-09T18:48:59.917Z,102185.52
2024-05-09T18:51:31.985Z,102185.76
2024-05-09T18:54:04.005Z,102189.02
2024-05-09T18:56:36.027Z,102196.58
2024-05-09T18:59:08.273Z,102195.17
2024-05-09T19:01:42.252Z,102195.77
2024-05-09T19:04:18.360Z,102195.96
2024-05-09T19:06:50.775Z,102197.10
2024-05-09T19:09:22.564Z,102196.45
2024-05-09T19:11:54.536Z,102195.27
2024-05-09T19:14:26.199Z,102197.46
2024-05-09T19:16:58.298Z,102202.34
2024-05-09T19:19:30.089Z,102200.80
2024-05-09T19:22:01.896Z,102201.36
2024-05-09T19:24:33.539Z,102202.67
2024-05-09T19:27:05.824Z,102202.55
2024-05-09T19:29:38.160Z,102195.84
2024-05-09T19:32:10.554Z,102197.86
2024-05-09T19:34:42.250Z,102200.41
2024-05-09T19:37:14.152Z,102196.36
2024-05-09T19:39:45.937Z,102194.61
2024-05-09T19:42:17.778Z,102196.45
2024-05-09T19:44:49.475Z,102197.52
2024-05-09T19:47:21.185Z,102198.64
2024-05-09T19:49:52.903Z,102199.16
2024-05-09T19:52:24.566Z,102197.93
2024-05-09T19:54:56.429Z,102197.60
2024-05-09T19:57:27.990Z,102201.70
2024-05-09T19:59:59.539Z,102201.54
2024-05-09T20:02:31.405Z,102203.33
2024-05-09T20:05:04.056Z,102201.73
2024-05-09T20:07:37.553Z,102202.45
2024-05-09T20:10:16.622Z,102200.50
2024-05-09T20:12:55.019Z,102200.33
2024-05-09T20:15:26.724Z,102197.30
2024-05-09T20:17:58.490Z,102201.75
2024-05-09T20:20:37.557Z,102201.74
2024-05-09T20:23:13.685Z,102203.86
2024-05-09T20:25:45.552Z,102200.48
2024-05-09T20:28:17.313Z,102202.58
2024-05-09T20:30:49.394Z,102203.63
2024-05-09T20:33:20.994Z,102197.92
2024-05-09T20:35:55.393Z,102201.46
2024-05-09T20:38:27.245Z,102203.05
2024-05-09T20:40:59.112Z,102202.50
2024-05-09T20:43:30.817Z,102205.33
2024-05-09T20:46:02.463Z,102204.09
2024-05-09T20:48:34.594Z,102204.42
2024-05-09T20:51:06.928Z,102201.04
2024-05-09T20:53:38.480Z,102201.73
2024-05-09T20:56:10.879Z,102204.21
2024-05-09T20:58:42.853Z,102202.96
2024-05-09T21:01:14.658Z,102203.31
2024-05-09T21:03:47.459Z,102201.52
2024-05-09T21:06:19.272Z,102205.59
2024-05-09T21:08:51.145Z,102204.85
2024-05-09T21:11:25.207Z,102205.02
2024-05-09T21:13:56.789Z,102205.00
2024-05-09T21:16:28.541Z,102210.31
2024-05-09T21:19:00.470Z,102208.34
2024-05-09T21:21:39.444Z,102209.56
2024-05-09T21:24:11.143Z,102208.84
2024-05-09T21:26:42.860Z,102209.69
2024-05-09T21:29:14.432Z,102208.25
2024-05-09T21:31:46.116Z,102207.70
2024-05-09T21:34:17.742Z,102206.63
2024-05-09T21:36:49.658Z,102199.33
2024-05-09T21:39:23.676Z,102200.91
2024-05-09T21:41:55.360Z,102203.88
2024-05-09T21:44:26.971Z,102199.23
2024-05-09T21:46:58.487Z,102201.52
2024-05-09T21:49:30.345Z,102199.56
2024-05-09T21:52:02.353Z,102199.36
2024-05-09T21:54:34.276Z,102196.88
2024-05-09T21:57:09.015Z,102195.09
2024-05-09T21:59:41.939Z,102194.72
2024-05-09T22:02:14.347Z,102198.25
2024-05-09T22:04:46.186Z,102198.25
2024-05-09T22:07:17.902Z,102192.92
2024-05-09T22:09:49.590Z,102193.80
2024-05-09T22:12:21.684Z,102194.29
2024-05-09T22:14:53.463Z,102193.20
2024-05-09T22:17:25.227Z,102190.00
2024-05-09T22:19:57.056Z,102193.17
2024-05-09T22:22:29.346Z,102187.31
2024-05-09T22:25:01.733Z,102182.70
2024-05-09T22:27:33.471Z,102184.09
2024-05-09T22:30:09.103Z,102179.46
2024-05-09T22:32:43.392Z,102181.56
2024-05-09T22:35:14.990Z,102182.23
2024-05-09T22:37:46.498Z,102179.91
2024-05-09T22:40:28.244Z,102184.11
2024-05-09T22:43:09.131Z,102181.77
2024-05-09T22:45:40.928Z,102185.65
2024-05-09T22:48:13.149Z,102186.15
2024-05-09T22:50:44.907Z,102186.48
2024-05-09T22:53:16.808Z,102190.72
2024-05-09T22:55:48.630Z,102189.65
2024-05-09T22:58:21.214Z,102192.11
2024-05-09T23:00:53.054Z,102185.88
2024-05-09T23:03:26.183Z,102188.69
2024-05-09T23:05:58.950Z,102185.31
2024-05-09T23:08:31.521Z,102178.39
2024-05-09T23:11:04.320Z,102173.59
2024-05-09T23:13:37.079Z,102172.15
2024-05-09T23:16:09.381Z,102173.40
2024-05-09T23:18:41.353Z,102177.27
2024-05-09T23:21:12.973Z,102178.52
2024-05-09T23:23:44.616Z,102176.71
2024-05-09T23:26:16.091Z,102180.78
2024-05-09T23:28:47.669Z,102178.45
2024-05-09T23:31:19.346Z,102178.80
2024-05-09T23:33:51.293Z,102177.56
2024-05-09T23:36:23.042Z,102176.13
2024-05-09T23:38:54.879Z,102175.06
2024-05-09T23:41:26.373Z,102174.69
2024-05-09T23:43:57.971Z,102173.63
2024-05-09T23:46:29.664Z,102173.79
2024-05-09T23:49:01.316Z,102174.84
2024-05-09T23:51:33.136Z,102175.39
2024-05-09T23:54:04.900Z,102167.92
2024-05-09T23:56:36.570Z,102171.09
2024-05-09T23:59:08.442Z,102172.67
